createdAt,value
2017-05-18T00:00:16.565Z,63.19
2017-05-18T00:01:17.554Z,63.44
2017-05-18T00:02:12.641Z,63.24
2017-05-18T00:03:01.650Z,63.44
2017-05-18T00:03:50.705Z,63.60
2017-05-18T00:04:44.748Z,63.42
2017-05-18T00:05:44.785Z,63.13
2017-05-18T00:06:38.860Z,63.17
2017-05-18T00:07:33.829Z,63.74
2017-05-18T00:08:21.934Z,63.78
2017-05-18T00:09:22.070Z,63.40
2017-05-18T00:10:15.958Z,63.45
2017-05-18T00:11:04.046Z,63.73
2017-05-18T00:11:58.122Z,63.41
2017-05-18T00:12:52.474Z,63.74
2017-05-18T00:13:53.152Z,63.55
2017-05-18T00:14:47.240Z,63.71
2017-05-18T00:15:47.257Z,63.53
2017-05-18T00:16:36.282Z,63.81
2017-05-18T00:17:25.358Z,63.98
2017-05-18T00:18:20.380Z,63.98
2017-05-18T00:19:20.437Z,64.09
2017-05-18T00:20:14.467Z,64.20
2017-05-18T00:21:09.611Z,64.04
2017-05-18T00:21:57.576Z,64.18
2017-05-18T00:22:45.714Z,64.31
2017-05-18T00:23:34.014Z,64.31
2017-05-18T00:24:28.667Z,63.79
2017-05-18T00:25:22.936Z,64.05
2017-05-18T00:26:22.798Z,64.25
2017-05-18T00:27:17.864Z,64.03
2017-05-18T00:28:18.847Z,64.17
2017-05-18T00:29:18.897Z,63.56
2017-05-18T00:30:07.935Z,64.13
2017-05-18T00:30:57.059Z,64.15
2017-05-18T00:31:52.042Z,63.95
2017-05-18T00:32:52.087Z,64.05
2017-05-18T00:33:52.156Z,64.33
2017-05-18T00:34:52.159Z,63.87
2017-05-18T00:35:46.205Z,63.94
2017-05-18T00:36:40.254Z,64.16
2017-05-18T00:37:34.278Z,63.74
2017-05-18T00:38:29.334Z,64.08
2017-05-18T00:39:23.365Z,64.24
2017-05-18T00:40:24.518Z,64.01
2017-05-18T00:41:13.439Z,64.09
2017-05-18T00:42:13.554Z,64.11
2017-05-18T00:43:07.531Z,64.11
2017-05-18T00:43:55.604Z,64.17
2017-05-18T00:44:49.614Z,64.06
2017-05-18T00:45:44.664Z,64.23
2017-05-18T00:46:38.728Z,64.23
2017-05-18T00:47:27.747Z,64.23
2017-05-18T00:48:22.850Z,65.03
2017-05-18T00:49:16.855Z,64.51
2017-05-18T00:50:10.861Z,64.42
2017-05-18T00:51:10.942Z,64.59
2017-05-18T00:52:04.950Z,64.67
2017-05-18T00:52:54.057Z,64.66
2017-05-18T00:53:43.062Z,64.71
2017-05-18T00:54:43.114Z,64.77
2017-05-18T00:55:31.140Z,64.44
2017-05-18T00:56:25.164Z,64.50
2017-05-18T00:57:19.246Z,64.70
2017-05-18T00:58:14.406Z,64.58
2017-05-18T00:59:03.405Z,64.72
2017-05-18T01:00:03.383Z,64.72
2017-05-18T01:00:58.374Z,64.65
2017-05-18T01:01:47.444Z,64.77
2017-05-18T01:02:35.569Z,64.79
2017-05-18T01:03:35.676Z,64.79
2017-05-18T01:04:30.552Z,65.01
2017-05-18T01:05:25.610Z,65.11
2017-05-18T01:06:25.685Z,65.21
2017-05-18T01:07:20.681Z,65.26
2017-05-18T01:08:15.737Z,65.28
2017-05-18T01:09:15.746Z,65.46
2017-05-18T01:10:10.806Z,65.26
2017-05-18T01:11:04.856Z,65.37
2017-05-18T01:12:04.925Z,65.48
2017-05-18T01:12:58.951Z,65.45
2017-05-18T01:13:58.946Z,65.53
2017-05-18T01:14:48.073Z,65.58
2017-05-18T01:15:42.040Z,65.55
2017-05-18T01:16:42.132Z,65.65
2017-05-18T01:17:36.165Z,65.51
2017-05-18T01:18:36.138Z,65.68
2017-05-18T01:19:31.285Z,65.49
2017-05-18T01:20:20.286Z,65.65
2017-05-18T01:21:09.317Z,65.79
2017-05-18T01:22:09.360Z,65.81
2017-05-18T01:22:57.431Z,65.83
2017-05-18T01:23:45.460Z,65.85
2017-05-18T01:24:33.552Z,65.93
2017-05-18T01:25:28.549Z,65.90
2017-05-18T01:26:28.629Z,65.85
2017-05-18T01:27:22.657Z,65.74
2017-05-18T01:28:22.647Z,65.80
2017-05-18T01:29:17.691Z,65.75
2017-05-18T01:30:23.747Z,65.85
2017-05-18T01:31:18.823Z,65.76
2017-05-18T01:32:18.834Z,65.82
2017-05-18T01:33:18.885Z,65.91
2017-05-18T01:34:12.893Z,65.83
2017-05-18T01:35:13.930Z,65.67
2017-05-18T01:36:02.027Z,65.78
2017-05-18T01:36:50.034Z,65.74
2017-05-18T01:37:39.074Z,65.77
2017-05-18T01:38:33.470Z,65.51
2017-05-18T01:39:21.173Z,65.66
2017-05-18T01:40:15.214Z,65.76
2017-05-18T01:41:15.288Z,65.76
2017-05-18T01:42:15.286Z,65.83
2017-05-18T01:43:21.385Z,65.63
2017-05-18T01:44:15.353Z,65.52
2017-05-18T01:45:15.407Z,65.85
2017-05-18T01:46:15.451Z,65.87
2017-05-18T01:47:15.597Z,65.86
2017-05-18T01:48:09.522Z,65.96
2017-05-18T01:49:09.559Z,65.91
2017-05-18T01:50:04.637Z,66.10
2017-05-18T01:50:59.645Z,66.09
2017-05-18T01:51:59.699Z,66.20
2017-05-18T01:52:55.057Z,66.22
2017-05-18T01:53:49.783Z,66.30
2017-05-18T01:54:50.835Z,66.38
2017-05-18T01:55:50.810Z,66.19
2017-05-18T01:56:45.891Z,66.19
2017-05-18T01:57:34.947Z,66.27
2017-05-18T01:58:35.414Z,66.32
2017-05-18T01:59:23.031Z,66.25
2017-05-18T02:00:23.021Z,66.28
2017-05-18T02:01:18.114Z,66.38
2017-05-18T02:02:12.139Z,66.35
2017-05-18T02:03:06.164Z,66.45
2017-05-18T02:04:01.241Z,66.40
2017-05-18T02:04:55.266Z,66.04
2017-05-18T02:05:49.349Z,66.32
2017-05-18T02:06:38.337Z,66.41
2017-05-18T02:07:38.466Z,66.34
2017-05-18T02:08:33.830Z,66.36
2017-05-18T02:09:28.481Z,66.37
2017-05-18T02:10:28.613Z,66.34
2017-05-18T02:11:23.549Z,66.47
2017-05-18T02:12:12.589Z,66.49
2017-05-18T02:13:01.628Z,66.65
2017-05-18T02:13:55.651Z,66.87
2017-05-18T02:14:50.738Z,66.84
2017-05-18T02:15:44.732Z,66.68
2017-05-18T02:16:44.847Z,66.62
2017-05-18T02:17:39.838Z,66.62
2017-05-18T02:18:35.509Z,66.64
2017-05-18T02:19:28.922Z,66.59
2017-05-18T02:20:23.971Z,66.72
2017-05-18T02:21:12.045Z,66.72
2017-05-18T02:22:06.253Z,66.71
2017-05-18T02:23:06.125Z,66.74
2017-05-18T02:23:55.215Z,66.88
2017-05-18T02:24:50.194Z,66.90
2017-05-18T02:25:44.222Z,67.00
2017-05-18T02:26:32.252Z,66.99
2017-05-18T02:27:32.327Z,67.07
2017-05-18T02:28:26.395Z,67.15
2017-05-18T02:29:21.371Z,67.28
2017-05-18T02:30:16.452Z,67.34
2017-05-18T02:31:10.516Z,67.43
2017-05-18T02:32:11.532Z,67.37
2017-05-18T02:33:05.656Z,67.29
2017-05-18T02:34:06.615Z,67.31
2017-05-18T02:35:06.655Z,67.39
2017-05-18T02:36:01.677Z,67.33
2017-05-18T02:36:56.694Z,67.34
2017-05-18T02:37:57.764Z,67.25
2017-05-18T02:38:57.842Z,67.33
2017-05-18T02:39:52.897Z,67.35
2017-05-18T02:40:52.846Z,67.38
2017-05-18T02:41:52.915Z,67.46
2017-05-18T02:42:58.996Z,67.48
2017-05-18T02:43:54.003Z,67.30
2017-05-18T02:44:54.024Z,67.36
2017-05-18T02:45:49.042Z,67.23
2017-05-18T02:46:44.139Z,67.25
2017-05-18T02:47:38.136Z,67.31
2017-05-18T02:48:44.460Z,67.23
2017-05-18T02:49:38.207Z,67.33
2017-05-18T02:50:44.404Z,67.35
2017-05-18T02:51:38.404Z,67.40
2017-05-18T02:52:39.362Z,67.45
2017-05-18T02:53:34.623Z,67.64
2017-05-18T02:54:28.804Z,67.53
2017-05-18T02:55:28.426Z,67.55
2017-05-18T02:56:23.638Z,67.55
2017-05-18T02:57:23.538Z,67.65
2017-05-18T02:58:17.589Z,67.65
2017-05-18T02:59:17.632Z,67.73
2017-05-18T03:00:11.643Z,67.62
2017-05-18T03:00:59.699Z,67.69
2017-05-18T03:01:53.759Z,67.71
2017-05-18T03:02:42.935Z,67.79
2017-05-18T03:03:30.856Z,67.84
2017-05-18T03:04:19.897Z,67.94
2017-05-18T03:05:07.904Z,68.25
2017-05-18T03:05:55.989Z,68.11
2017-05-18T03:06:50.333Z,68.11
2017-05-18T03:07:39.097Z,68.17
2017-05-18T03:08:27.127Z,68.14
2017-05-18T03:09:15.149Z,68.14
2017-05-18T03:10:04.300Z,68.21
2017-05-18T03:10:52.412Z,68.26
2017-05-18T03:11:40.429Z,68.29
2017-05-18T03:12:29.354Z,68.26
2017-05-18T03:13:17.424Z,68.27
2017-05-18T03:14:05.442Z,68.30
2017-05-18T03:14:59.514Z,68.40
2017-05-18T03:15:53.882Z,68.57
2017-05-18T03:16:47.551Z,68.95
2017-05-18T03:17:47.657Z,68.94
2017-05-18T03:18:42.681Z,68.90
2017-05-18T03:19:37.696Z,68.87
2017-05-18T03:20:38.774Z,68.88
2017-05-18T03:21:38.834Z,68.96
2017-05-18T03:22:33.826Z,69.01
2017-05-18T03:23:28.891Z,69.11
2017-05-18T03:24:28.936Z,69.16
2017-05-18T03:25:23.947Z,69.12
2017-05-18T03:26:17.975Z,69.18
2017-05-18T03:27:07.021Z,69.75
2017-05-18T03:28:07.099Z,69.63
2017-05-18T03:28:56.126Z,69.89
2017-05-18T03:29:56.237Z,69.60
2017-05-18T03:30:51.174Z,69.46
2017-05-18T03:31:51.230Z,69.44
2017-05-18T03:32:45.253Z,69.80
2017-05-18T03:33:39.259Z,70.35
2017-05-18T03:34:39.353Z,69.85
2017-05-18T03:35:39.396Z,69.92
2017-05-18T03:36:39.443Z,69.85
2017-05-18T03:37:39.436Z,69.90
2017-05-18T03:38:39.515Z,69.77
2017-05-18T03:39:39.569Z,69.69
2017-05-18T03:40:39.567Z,69.48
2017-05-18T03:41:39.631Z,69.37
2017-05-18T03:42:39.679Z,69.27
2017-05-18T03:43:39.667Z,69.18
2017-05-18T03:44:39.687Z,69.21
2017-05-18T03:45:39.756Z,69.26
2017-05-18T03:46:39.873Z,69.31
2017-05-18T03:47:39.855Z,69.28
2017-05-18T03:48:39.862Z,69.23
2017-05-18T03:49:39.930Z,69.22
2017-05-18T03:50:39.966Z,69.21
2017-05-18T03:51:40.015Z,69.21
2017-05-18T03:52:40.024Z,69.30
2017-05-18T03:53:40.066Z,69.19
2017-05-18T03:54:40.091Z,69.48
2017-05-18T03:55:41.155Z,69.35
2017-05-18T03:56:36.204Z,69.38
2017-05-18T03:57:30.218Z,69.30
2017-05-18T03:58:30.250Z,69.24
2017-05-18T03:59:25.297Z,69.29
2017-05-18T04:00:20.370Z,69.17
2017-05-18T04:01:21.467Z,69.09
2017-05-18T04:02:21.433Z,69.16
2017-05-18T04:03:16.552Z,69.17
2017-05-18T04:04:11.642Z,69.16
2017-05-18T04:05:11.526Z,69.11
2017-05-18T04:06:06.597Z,69.12
2017-05-18T04:07:01.650Z,69.10
2017-05-18T04:07:56.217Z,69.02
2017-05-18T04:08:56.662Z,68.95
2017-05-18T04:09:57.037Z,68.92
2017-05-18T04:10:51.738Z,68.79
2017-05-18T04:11:51.841Z,68.82
2017-05-18T04:12:52.231Z,68.79
2017-05-18T04:13:51.913Z,68.75
2017-05-18T04:14:45.943Z,68.75
2017-05-18T04:15:45.966Z,68.64
2017-05-18T04:16:41.004Z,68.57
2017-05-18T04:17:36.059Z,68.56
2017-05-18T04:18:36.127Z,68.50
2017-05-18T04:19:36.141Z,68.38
2017-05-18T04:20:36.161Z,69.12
2017-05-18T04:21:36.270Z,69.03
2017-05-18T04:22:30.273Z,69.00
2017-05-18T04:23:30.306Z,69.00
2017-05-18T04:24:25.422Z,68.90
2017-05-18T04:25:20.347Z,68.90
2017-05-18T04:26:14.419Z,68.79
2017-05-18T04:27:14.712Z,68.87
2017-05-18T04:28:09.473Z,68.79
2017-05-18T04:29:09.548Z,68.66
2017-05-18T04:30:09.552Z,68.64
2017-05-18T04:31:09.610Z,68.62
2017-05-18T04:32:03.621Z,68.61
2017-05-18T04:33:03.696Z,68.36
2017-05-18T04:33:58.738Z,68.11
2017-05-18T04:34:58.749Z,67.67
2017-05-18T04:35:59.823Z,66.96
2017-05-18T04:37:00.843Z,66.47
2017-05-18T04:38:02.042Z,65.66
2017-05-18T04:38:55.926Z,65.11
2017-05-18T04:39:57.012Z,64.46
2017-05-18T04:40:57.013Z,63.71
2017-05-18T04:41:52.059Z,63.06
2017-05-18T04:42:52.510Z,61.87
2017-05-18T04:43:53.139Z,60.86
2017-05-18T04:44:53.158Z,59.87
2017-05-18T04:45:59.224Z,59.24
2017-05-18T04:46:54.247Z,58.30
2017-05-18T04:47:48.325Z,58.93
2017-05-18T04:48:43.368Z,58.47
2017-05-18T04:49:37.364Z,59.00
2017-05-18T04:50:32.461Z,57.35
2017-05-18T04:51:20.549Z,60.00
2017-05-18T04:52:09.608Z,58.07
2017-05-18T04:52:58.032Z,57.54
2017-05-18T04:53:46.722Z,56.77
2017-05-18T04:54:35.876Z,56.20
2017-05-18T04:55:25.129Z,55.68
2017-05-18T04:56:13.958Z,54.23
2017-05-18T04:57:08.015Z,55.83
2017-05-18T04:57:56.632Z,53.67
2017-05-18T04:58:45.152Z,55.91
2017-05-18T04:59:34.210Z,57.11
2017-05-18T05:00:28.284Z,55.16
2017-05-18T05:01:16.332Z,56.37
2017-05-18T05:02:10.454Z,57.33
2017-05-18T05:02:58.439Z,54.36
2017-05-18T05:03:52.547Z,55.56
2017-05-18T05:04:40.656Z,56.19
2017-05-18T05:05:40.651Z,56.21
2017-05-18T05:06:28.792Z,54.08
2017-05-18T05:07:16.865Z,51.31
2017-05-18T05:08:16.958Z,52.19
2017-05-18T05:09:11.990Z,53.88
2017-05-18T05:10:12.356Z,52.46
2017-05-18T05:11:01.148Z,51.71
2017-05-18T05:12:01.161Z,53.22
2017-05-18T05:12:56.658Z,51.59
2017-05-18T05:13:44.565Z,53.76
2017-05-18T05:14:32.656Z,53.86
2017-05-18T05:15:21.726Z,52.34
2017-05-18T05:16:10.832Z,50.64
2017-05-18T05:17:04.933Z,51.89
2017-05-18T05:17:53.030Z,53.81
2017-05-18T05:18:42.029Z,49.96
2017-05-18T05:19:36.919Z,49.83
2017-05-18T05:20:37.084Z,51.94
2017-05-18T05:21:37.186Z,52.52
2017-05-18T05:22:26.368Z,52.24
2017-05-18T05:23:26.396Z,49.66
2017-05-18T05:24:26.211Z,51.13
2017-05-18T05:25:20.322Z,50.74
2017-05-18T05:26:14.355Z,51.03
2017-05-18T05:27:02.556Z,50.61
2017-05-18T05:27:57.030Z,50.39
2017-05-18T05:28:51.533Z,51.85
2017-05-18T05:29:45.659Z,53.07
2017-05-18T05:30:46.012Z,51.01
2017-05-18T05:31:40.976Z,51.95
2017-05-18T05:32:28.855Z,53.08
2017-05-18T05:33:23.123Z,52.67
2017-05-18T05:34:22.965Z,54.46
2017-05-18T05:35:17.052Z,52.36
2017-05-18T05:36:11.238Z,54.22
2017-05-18T05:37:00.165Z,53.58
2017-05-18T05:37:54.590Z,53.95
2017-05-18T05:38:49.478Z,52.94
2017-05-18T05:39:44.403Z,56.24
2017-05-18T05:40:38.474Z,53.11
2017-05-18T05:41:26.515Z,53.49
2017-05-18T05:42:15.693Z,51.89
2017-05-18T05:43:09.645Z,53.14
2017-05-18T05:44:03.751Z,52.22
2017-05-18T05:44:58.968Z,54.67
2017-05-18T05:45:53.939Z,52.79
2017-05-18T05:46:47.946Z,52.62
2017-05-18T05:47:48.084Z,52.75
2017-05-18T05:48:43.081Z,53.93
2017-05-18T05:49:37.445Z,52.04
2017-05-18T05:50:26.596Z,51.86
2017-05-18T05:51:20.672Z,52.34
2017-05-18T05:52:14.657Z,54.01
2017-05-18T05:53:15.574Z,51.11
2017-05-18T05:54:09.851Z,53.96
2017-05-18T05:55:03.842Z,53.84
2017-05-18T05:56:04.875Z,54.30
2017-05-18T05:57:00.046Z,53.67
2017-05-18T05:57:55.189Z,52.70
2017-05-18T05:58:54.889Z,52.75
2017-05-18T05:59:44.106Z,54.52
2017-05-18T06:00:33.446Z,55.85
2017-05-18T06:01:22.182Z,56.34
2017-05-18T06:02:16.691Z,56.11
2017-05-18T06:03:10.357Z,56.07
2017-05-18T06:04:05.257Z,56.24
2017-05-18T06:04:54.437Z,56.44
2017-05-18T06:05:49.416Z,56.98
2017-05-18T06:06:38.512Z,57.17
2017-05-18T06:07:32.592Z,56.79
2017-05-18T06:08:20.630Z,58.35
2017-05-18T06:09:09.792Z,57.83
2017-05-18T06:09:57.783Z,59.23
2017-05-18T06:10:52.010Z,59.65
2017-05-18T06:11:47.177Z,56.89
2017-05-18T06:12:40.965Z,57.89
2017-05-18T06:13:41.044Z,59.22
2017-05-18T06:14:36.099Z,58.81
2017-05-18T06:15:31.122Z,57.67
2017-05-18T06:16:25.291Z,56.47
2017-05-18T06:17:14.294Z,57.11
2017-05-18T06:18:03.392Z,56.37
2017-05-18T06:19:09.532Z,59.21
2017-05-18T06:20:03.463Z,56.54
2017-05-18T06:20:52.857Z,53.19
2017-05-18T06:21:40.620Z,53.33
2017-05-18T06:22:35.645Z,51.22
2017-05-18T06:23:24.886Z,50.33
2017-05-18T06:24:19.846Z,48.84
2017-05-18T06:25:13.948Z,50.93
2017-05-18T06:26:08.267Z,49.34
2017-05-18T06:26:56.303Z,49.32
2017-05-18T06:27:50.517Z,49.77
2017-05-18T06:28:39.873Z,50.91
2017-05-18T06:29:28.561Z,50.49
2017-05-18T06:30:17.676Z,50.42
2017-05-18T06:31:12.729Z,49.74
2017-05-18T06:32:06.753Z,50.95
2017-05-18T06:33:06.921Z,50.03
2017-05-18T06:34:02.325Z,48.96
2017-05-18T06:34:51.087Z,50.42
2017-05-18T06:35:40.146Z,51.67
2017-05-18T06:36:34.185Z,51.53
2017-05-18T06:37:28.298Z,52.09
2017-05-18T06:38:17.357Z,54.36
2017-05-18T06:39:11.817Z,56.25
2017-05-18T06:40:06.499Z,57.27
2017-05-18T06:40:55.627Z,58.44
2017-05-18T06:41:44.662Z,56.68
2017-05-18T06:42:33.725Z,57.26
2017-05-18T06:43:27.858Z,58.54
2017-05-18T06:44:21.862Z,58.66
2017-05-18T06:45:15.877Z,59.59
2017-05-18T06:46:16.940Z,60.15
2017-05-18T06:47:17.984Z,59.84
2017-05-18T06:48:12.110Z,60.45
2017-05-18T06:49:01.124Z,60.36
2017-05-18T06:49:55.243Z,61.98
2017-05-18T06:50:44.265Z,61.40
2017-05-18T06:51:44.355Z,60.46
2017-05-18T06:52:38.455Z,61.06
2017-05-18T06:53:32.506Z,60.12
2017-05-18T06:54:20.512Z,61.32
2017-05-18T06:55:14.667Z,60.67
2017-05-18T06:56:03.606Z,58.87
2017-05-18T06:56:57.754Z,59.04
2017-05-18T06:57:52.772Z,59.49
2017-05-18T06:58:40.922Z,58.21
2017-05-18T06:59:40.977Z,58.59
2017-05-18T07:00:35.064Z,58.02
2017-05-18T07:01:23.873Z,57.55
2017-05-18T07:02:13.015Z,57.17
2017-05-18T07:03:02.342Z,56.49
2017-05-18T07:03:50.066Z,57.72
2017-05-18T07:04:39.159Z,55.40
2017-05-18T07:05:28.326Z,56.66
2017-05-18T07:06:22.674Z,56.25
2017-05-18T07:07:16.446Z,55.14
2017-05-18T07:08:17.460Z,56.68
2017-05-18T07:09:06.808Z,58.08
2017-05-18T07:10:00.603Z,57.94
2017-05-18T07:10:54.989Z,57.86
2017-05-18T07:11:48.775Z,56.64
2017-05-18T07:12:36.854Z,57.86
2017-05-18T07:13:25.989Z,57.85
2017-05-18T07:14:21.100Z,56.36
2017-05-18T07:15:09.047Z,56.94
2017-05-18T07:15:58.145Z,56.89
2017-05-18T07:16:52.219Z,58.29
2017-05-18T07:17:52.587Z,59.43
2017-05-18T07:18:41.358Z,60.16
2017-05-18T07:19:35.449Z,60.58
2017-05-18T07:20:29.785Z,60.35
2017-05-18T07:21:23.951Z,61.50
2017-05-18T07:22:17.813Z,61.23
2017-05-18T07:23:18.963Z,62.34
2017-05-18T07:24:06.822Z,62.09
2017-05-18T07:25:01.866Z,61.92
2017-05-18T07:25:56.951Z,62.23
2017-05-18T07:26:52.268Z,62.33
2017-05-18T07:27:46.070Z,62.78
2017-05-18T07:28:41.154Z,62.75
2017-05-18T07:29:35.247Z,63.46
2017-05-18T07:30:29.226Z,63.97
2017-05-18T07:31:24.331Z,63.46
2017-05-18T07:32:24.361Z,63.79
2017-05-18T07:33:24.793Z,64.25
2017-05-18T07:34:18.433Z,64.21
2017-05-18T07:35:12.718Z,64.68
2017-05-18T07:36:07.812Z,65.03
2017-05-18T07:37:01.671Z,64.89
2017-05-18T07:37:57.014Z,65.08
2017-05-18T07:38:58.452Z,65.19
2017-05-18T07:39:58.766Z,65.40
2017-05-18T07:40:53.159Z,65.35
2017-05-18T07:41:47.188Z,65.86
2017-05-18T07:42:48.005Z,65.61
2017-05-18T07:43:42.997Z,66.10
2017-05-18T07:44:38.330Z,66.38
2017-05-18T07:45:32.083Z,66.23
2017-05-18T07:46:32.133Z,66.80
2017-05-18T07:47:26.317Z,67.26
2017-05-18T07:48:26.473Z,68.03
2017-05-18T07:49:14.315Z,68.52
2017-05-18T07:50:08.328Z,69.64
2017-05-18T07:51:08.406Z,69.49
2017-05-18T07:52:03.444Z,70.23
2017-05-18T07:52:58.835Z,69.89
2017-05-18T07:53:58.543Z,71.01
2017-05-18T07:54:52.646Z,72.20
2017-05-18T07:55:46.704Z,72.20
2017-05-18T07:56:34.636Z,72.64
2017-05-18T07:57:34.703Z,72.30
2017-05-18T07:58:29.053Z,71.18
2017-05-18T07:59:22.834Z,72.15
2017-05-18T08:00:17.868Z,73.33
2017-05-18T08:01:07.115Z,71.25
2017-05-18T08:02:07.286Z,70.66
2017-05-18T08:03:01.407Z,70.93
2017-05-18T08:03:55.132Z,70.25
2017-05-18T08:04:50.151Z,70.22
2017-05-18T08:05:44.223Z,70.27
2017-05-18T08:06:39.246Z,70.14
2017-05-18T08:07:39.381Z,69.16
2017-05-18T08:08:34.340Z,68.55
2017-05-18T08:09:28.417Z,69.18
2017-05-18T08:10:28.469Z,69.58
2017-05-18T08:11:17.521Z,69.16
2017-05-18T08:12:11.979Z,67.94
2017-05-18T08:13:06.640Z,67.10
2017-05-18T08:14:00.688Z,67.73
2017-05-18T08:14:55.994Z,68.36
2017-05-18T08:15:45.147Z,68.92
2017-05-18T08:16:39.877Z,67.42
2017-05-18T08:17:33.971Z,67.92
2017-05-18T08:18:28.962Z,67.95
2017-05-18T08:19:18.019Z,68.70
2017-05-18T08:20:07.103Z,69.46
2017-05-18T08:20:56.160Z,69.93
2017-05-18T08:21:57.222Z,69.45
2017-05-18T08:22:46.550Z,69.86
2017-05-18T08:23:40.322Z,71.06
2017-05-18T08:24:34.336Z,70.96
2017-05-18T08:25:28.412Z,71.10
2017-05-18T08:26:17.489Z,71.36
2017-05-18T08:27:11.508Z,71.20
2017-05-18T08:28:11.974Z,69.13
2017-05-18T08:29:11.636Z,69.33
2017-05-18T08:30:11.665Z,70.07
2017-05-18T08:31:11.642Z,70.55
2017-05-18T08:32:06.742Z,69.90
2017-05-18T08:33:01.369Z,69.06
2017-05-18T08:34:00.950Z,69.15
2017-05-18T08:34:55.890Z,69.41
2017-05-18T08:35:55.935Z,69.50
2017-05-18T08:36:49.961Z,69.94
2017-05-18T08:37:44.043Z,69.24
2017-05-18T08:38:39.067Z,69.01
2017-05-18T08:39:34.129Z,69.97
2017-05-18T08:40:29.166Z,70.64
2017-05-18T08:41:23.203Z,69.16
2017-05-18T08:42:23.334Z,67.90
2017-05-18T08:43:23.366Z,67.11
2017-05-18T08:44:17.443Z,65.53
2017-05-18T08:45:11.545Z,64.29
2017-05-18T08:46:05.603Z,64.57
2017-05-18T08:46:53.636Z,63.26
2017-05-18T08:47:47.705Z,63.59
2017-05-18T08:48:42.747Z,63.87
2017-05-18T08:49:37.837Z,63.12
2017-05-18T08:50:31.922Z,63.87
2017-05-18T08:51:27.070Z,62.67
2017-05-18T08:52:21.060Z,62.97
2017-05-18T08:53:16.116Z,63.66
2017-05-18T08:54:10.319Z,63.86
2017-05-18T08:55:04.285Z,64.38
2017-05-18T08:55:59.617Z,64.30
2017-05-18T08:56:59.593Z,63.95
2017-05-18T08:57:59.863Z,64.36
2017-05-18T08:58:47.526Z,64.64
2017-05-18T08:59:47.590Z,64.94
2017-05-18T09:00:36.716Z,64.76
2017-05-18T09:01:31.048Z,65.08
2017-05-18T09:02:25.745Z,65.13
2017-05-18T09:03:13.826Z,65.14
2017-05-18T09:04:14.898Z,65.43
2017-05-18T09:05:14.941Z,66.01
2017-05-18T09:06:10.018Z,65.70
2017-05-18T09:07:10.089Z,65.96
2017-05-18T09:08:05.034Z,66.31
2017-05-18T09:08:54.179Z,66.02
2017-05-18T09:09:54.220Z,66.23
2017-05-18T09:10:54.255Z,64.97
2017-05-18T09:11:48.352Z,65.35
2017-05-18T09:12:43.543Z,65.63
2017-05-18T09:13:32.457Z,65.55
2017-05-18T09:14:26.616Z,65.04
2017-05-18T09:15:15.525Z,65.10
2017-05-18T09:16:09.599Z,64.85
2017-05-18T09:17:10.684Z,64.99
2017-05-18T09:18:00.148Z,63.98
2017-05-18T09:18:48.807Z,63.26
2017-05-18T09:19:42.899Z,63.53
2017-05-18T09:20:37.932Z,63.48
2017-05-18T09:21:27.017Z,62.41
2017-05-18T09:22:21.442Z,61.67
2017-05-18T09:23:15.283Z,62.77
2017-05-18T09:24:09.506Z,61.02
2017-05-18T09:25:09.732Z,62.01
2017-05-18T09:25:58.486Z,61.62
2017-05-18T09:26:52.529Z,61.79
2017-05-18T09:27:46.814Z,62.09
2017-05-18T09:28:40.673Z,61.67
2017-05-18T09:29:35.793Z,62.12
2017-05-18T09:30:30.850Z,61.13
2017-05-18T09:31:19.941Z,60.73
2017-05-18T09:32:09.049Z,60.93
2017-05-18T09:33:04.450Z,61.56
2017-05-18T09:33:53.998Z,61.59
2017-05-18T09:34:41.525Z,61.65
2017-05-18T09:35:35.614Z,61.99
2017-05-18T09:36:30.657Z,62.37
2017-05-18T09:37:18.624Z,62.86
2017-05-18T09:38:13.813Z,62.29
2017-05-18T09:39:08.256Z,62.83
2017-05-18T09:40:01.922Z,62.50
2017-05-18T09:41:02.118Z,62.61
2017-05-18T09:42:01.968Z,61.26
2017-05-18T09:42:56.068Z,61.73
2017-05-18T09:43:51.295Z,61.54
2017-05-18T09:44:51.739Z,61.55
2017-05-18T09:45:45.244Z,61.95
2017-05-18T09:46:40.569Z,62.19
2017-05-18T09:47:34.390Z,62.63
2017-05-18T09:48:34.624Z,62.67
2017-05-18T09:49:29.741Z,62.20
2017-05-18T09:50:24.197Z,62.93
2017-05-18T09:51:12.897Z,63.00
2017-05-18T09:52:02.019Z,62.79
2017-05-18T09:52:51.036Z,61.66
2017-05-18T09:53:45.022Z,61.63
2017-05-18T09:54:38.905Z,61.76
2017-05-18T09:55:33.463Z,62.35
2017-05-18T09:56:33.030Z,62.54
2017-05-18T09:57:28.194Z,62.73
2017-05-18T09:58:22.297Z,63.38
2017-05-18T09:59:16.581Z,63.29
2017-05-18T10:00:05.624Z,63.01
2017-05-18T10:00:54.479Z,62.91
2017-05-18T10:01:48.666Z,63.76
2017-05-18T10:02:37.675Z,63.49
2017-05-18T10:03:37.548Z,63.84
2017-05-18T10:04:31.848Z,64.35
2017-05-18T10:05:31.687Z,63.97
2017-05-18T10:06:25.744Z,64.86
2017-05-18T10:07:19.768Z,64.31
2017-05-18T10:08:13.781Z,63.28
2017-05-18T10:09:08.878Z,63.76
2017-05-18T10:09:57.901Z,63.31
2017-05-18T10:10:58.005Z,64.16
2017-05-18T10:11:47.101Z,63.07
2017-05-18T10:12:41.098Z,63.73
2017-05-18T10:13:41.292Z,63.85
2017-05-18T10:14:35.178Z,63.32
2017-05-18T10:15:36.243Z,64.43
2017-05-18T10:16:36.331Z,62.67
2017-05-18T10:17:36.614Z,62.43
2017-05-18T10:18:30.620Z,62.14
2017-05-18T10:19:18.870Z,62.44
2017-05-18T10:20:12.860Z,61.33
2017-05-18T10:21:06.974Z,62.11
2017-05-18T10:22:02.323Z,61.57
2017-05-18T10:22:56.809Z,61.99
2017-05-18T10:23:52.121Z,62.43
2017-05-18T10:24:46.207Z,63.13
2017-05-18T10:25:41.325Z,62.63
2017-05-18T10:26:47.402Z,62.84
2017-05-18T10:27:53.461Z,63.52
2017-05-18T10:28:47.499Z,62.65
2017-05-18T10:29:36.580Z,63.30
2017-05-18T10:30:25.702Z,63.85
2017-05-18T10:31:20.755Z,63.33
2017-05-18T10:32:21.702Z,63.40
2017-05-18T10:33:16.831Z,63.57
2017-05-18T10:34:11.880Z,63.78
2017-05-18T10:35:00.921Z,63.44
2017-05-18T10:35:49.989Z,63.66
2017-05-18T10:36:45.095Z,63.97
2017-05-18T10:37:39.183Z,63.78
2017-05-18T10:38:33.148Z,63.99
2017-05-18T10:39:28.263Z,64.30
2017-05-18T10:40:21.996Z,64.44
2017-05-18T10:41:16.252Z,64.43
2017-05-18T10:42:04.336Z,64.25
2017-05-18T10:42:59.177Z,64.55
2017-05-18T10:43:53.302Z,64.16
2017-05-18T10:44:47.341Z,64.26
2017-05-18T10:45:35.392Z,64.46
2017-05-18T10:46:29.741Z,64.33
2017-05-18T10:47:23.504Z,63.93
2017-05-18T10:48:18.852Z,63.79
2017-05-18T10:49:07.856Z,63.65
2017-05-18T10:49:56.667Z,64.09
2017-05-18T10:50:51.791Z,63.89
2017-05-18T10:51:46.998Z,63.01
2017-05-18T10:52:46.859Z,62.27
2017-05-18T10:53:41.196Z,62.51
2017-05-18T10:54:35.013Z,63.02
2017-05-18T10:55:30.095Z,62.60
2017-05-18T10:56:19.120Z,60.68
2017-05-18T10:57:19.215Z,61.61
2017-05-18T10:58:13.523Z,61.44
2017-05-18T10:59:08.386Z,61.69
2017-05-18T10:59:57.319Z,62.58
2017-05-18T11:00:51.522Z,63.24
2017-05-18T11:01:45.485Z,63.59
2017-05-18T11:02:45.504Z,63.42
2017-05-18T11:03:40.928Z,63.35
2017-05-18T11:04:34.673Z,63.77
2017-05-18T11:05:28.773Z,63.60
2017-05-18T11:06:23.717Z,63.74
2017-05-18T11:07:12.801Z,64.13
2017-05-18T11:08:07.991Z,64.35
2017-05-18T11:09:02.179Z,64.55
2017-05-18T11:10:02.002Z,64.82
2017-05-18T11:10:56.075Z,64.16
2017-05-18T11:11:51.146Z,64.28
2017-05-18T11:12:46.252Z,64.22
2017-05-18T11:13:35.221Z,64.19
2017-05-18T11:14:24.198Z,64.24
2017-05-18T11:15:13.447Z,64.22
2017-05-18T11:16:07.407Z,63.10
2017-05-18T11:17:02.578Z,63.96
2017-05-18T11:17:56.820Z,64.30
2017-05-18T11:18:51.798Z,63.85
2017-05-18T11:19:52.884Z,63.17
2017-05-18T11:20:46.943Z,63.83
2017-05-18T11:21:41.019Z,63.56
2017-05-18T11:22:36.075Z,62.96
2017-05-18T11:23:30.149Z,63.59
2017-05-18T11:24:24.270Z,63.74
2017-05-18T11:25:18.234Z,63.81
2017-05-18T11:26:12.307Z,64.76
2017-05-18T11:27:06.287Z,64.67
2017-05-18T11:28:00.394Z,64.82
2017-05-18T11:28:55.493Z,64.67
2017-05-18T11:29:49.494Z,65.11
2017-05-18T11:30:43.601Z,65.31
2017-05-18T11:31:43.591Z,65.28
2017-05-18T11:32:38.720Z,65.31
2017-05-18T11:33:26.683Z,65.78
2017-05-18T11:34:26.705Z,65.83
2017-05-18T11:35:20.805Z,65.73
2017-05-18T11:36:20.826Z,65.32
2017-05-18T11:37:14.918Z,64.96
2017-05-18T11:38:14.945Z,65.01
2017-05-18T11:39:09.007Z,65.15
2017-05-18T11:40:03.102Z,65.30
2017-05-18T11:40:57.130Z,65.71
2017-05-18T11:41:51.079Z,66.05
2017-05-18T11:42:46.157Z,65.96
2017-05-18T11:43:40.286Z,65.90
2017-05-18T11:44:35.311Z,65.88